Time;durP1;ratioP1;P1;durP2;ratioP2;P2;SDS_P1;SDS_P2;PMS_P1;PMS_P2;Temp;Humidity;BMP_temperature;BMP_pressure;BME280_temperature;BME280_humidity;BME280_pressure;Samples;Min_cycle;Max_cycle;Signal;HPM_P1;HPM_P2
2022/03/22 00:00:46;;;;;;;14.52;8.93;;;1.30;51.70;;;;;;5054850;28;20033;-71
2022/03/22 00:03:11;;;;;;;22.73;8.13;;;1.30;50.70;;;;;;5054844;28;20035;-71
2022/03/22 00:05:42;;;;;;;14.07;8.15;;;1.40;50.00;;;;;;5054982;28;20016;-71
2022/03/22 00:08:11;;;;;;;21.90;7.97;;;1.40;50.30;;;;;;5054479;28;20013;-71
2022/03/22 00:10:37;;;;;;;24.52;10.73;;;1.20;51.40;;;;;;5054828;28;20029;-71
2022/03/22 00:13:05;;;;;;;25.02;10.85;;;1.20;53.20;;;;;;5054593;28;20025;-71
2022/03/22 00:15:32;;;;;;;18.90;9.02;;;1.10;54.10;;;;;;5054580;28;20484;-71
2022/03/22 00:17:57;;;;;;;15.70;8.13;;;1.00;53.90;;;;;;5054256;28;20461;-70
2022/03/22 00:20:23;;;;;;;15.93;9.05;;;1.00;52.80;;;;;;5054495;28;20032;-70
2022/03/22 00:22:49;;;;;;;15.30;8.38;;;1.00;52.40;;;;;;5054492;28;20058;-70
2022/03/22 00:25:16;;;;;;;19.60;9.20;;;1.10;52.30;;;;;;5054763;28;20181;-71
2022/03/22 00:27:56;;;;;;;13.25;7.90;;;1.00;52.40;;;;;;5035934;28;20404;-70
2022/03/22 00:30:27;;;;;;;10.73;6.88;;;1.00;51.50;;;;;;5054192;28;20013;-70
2022/03/22 00:32:56;;;;;;;12.77;7.70;;;1.10;51.40;;;;;;5054124;28;20036;-70
2022/03/22 00:35:23;;;;;;;14.05;7.40;;;1.10;52.60;;;;;;5054179;28;20105;-70
2022/03/22 00:37:50;;;;;;;13.70;8.43;;;1.10;52.10;;;;;;5067990;23;20041;-77
2022/03/22 00:40:17;;;;;;;13.77;7.85;;;1.10;53.10;;;;;;5054125;28;20032;-76
2022/03/22 00:42:46;;;;;;;15.43;8.65;;;1.10;51.50;;;;;;5054260;28;20075;-77
2022/03/22 00:45:12;;;;;;;16.17;9.38;;;1.00;53.40;;;;;;5054322;28;20022;-76
2022/03/22 00:47:38;;;;;;;25.25;10.48;;;0.90;57.40;;;;;;5053870;28;20028;-77
2022/03/22 00:50:04;;;;;;;20.15;11.48;;;0.70;58.40;;;;;;5054105;28;20393;-76
2022/03/22 00:52:29;;;;;;;19.90;10.95;;;0.70;60.00;;;;;;5054098;28;20059;-76
2022/03/22 00:54:55;;;;;;;22.10;11.65;;;0.50;60.70;;;;;;5036407;28;20511;-76
2022/03/22 00:57:21;;;;;;;19.38;10.63;;;0.50;61.90;;;;;;5053520;28;20053;-78
2022/03/22 01:00:02;;;;;;;20.65;10.65;;;0.40;61.80;;;;;;5054073;28;20017;-77
2022/03/22 01:02:28;;;;;;;;;;;0.30;62.20;;;;;;5054789;28;20543;-76
2022/03/22 01:04:55;;;;;;;19.17;10.45;;;0.10;62.80;;;;;;5054852;28;19999;-77
2022/03/22 01:07:21;;;;;;;19.23;10.70;;;0.10;63.30;;;;;;5053872;28;20190;-77
2022/03/22 01:09:47;;;;;;;19.70;9.98;;;0.10;62.90;;;;;;5016104;28;20508;-76
2022/03/22 01:12:12;;;;;;;17.63;9.48;;;0.00;62.50;;;;;;5040098;28;20074;-76
2022/03/22 01:14:38;;;;;;;19.50;10.00;;;0.00;61.90;;;;;;5053468;28;20033;-76
2022/03/22 01:17:06;;;;;;;15.65;9.10;;;0.00;61.00;;;;;;5053483;28;20104;-75
2022/03/22 01:19:32;;;;;;;14.23;8.48;;;0.00;60.60;;;;;;5053359;28;20052;-77
2022/03/22 01:21:59;;;;;;;18.98;8.65;;;0.00;59.40;;;;;;5053561;28;20065;-76
2022/03/22 01:24:25;;;;;;;15.90;7.90;;;0.00;57.50;;;;;;5053190;28;20075;-74
2022/03/22 01:26:51;;;;;;;14.40;8.48;;;0.10;56.20;;;;;;5048475;28;20079;-77
2022/03/22 01:29:16;;;;;;;16.42;8.77;;;0.10;58.30;;;;;;5034547;28;20025;-76
2022/03/22 01:31:42;;;;;;;16.83;9.50;;;0.10;57.90;;;;;;5053149;28;20049;-76
2022/03/22 01:34:08;;;;;;;17.52;9.07;;;0.00;58.60;;;;;;5053585;28;20017;-77
2022/03/22 01:36:34;;;;;;;20.20;9.10;;;0.00;60.40;;;;;;5051435;28;20480;-77
2022/03/22 01:38:59;;;;;;;16.77;10.05;;;0.00;61.20;;;;;;5055153;28;20043;-77
2022/03/22 01:41:25;;;;;;;19.90;9.35;;;-3276.70;61.70;;;;;;5042419;28;20025;-78
2022/03/22 01:43:51;;;;;;;17.25;8.85;;;0.00;60.50;;;;;;5058408;28;20029;-77
2022/03/22 01:46:24;;;;;;;22.13;10.48;;;0.00;59.50;;;;;;5053849;28;20017;-76
2022/03/22 01:48:50;;;;;;;19.95;10.05;;;0.00;60.00;;;;;;5052620;28;20021;-76
2022/03/22 01:51:21;;;;;;;16.85;9.02;;;0.10;60.00;;;;;;5053365;28;20018;-76
2022/03/22 01:53:48;;;;;;;;;;;0.10;59.20;;;;;;5037508;28;20622;-76
2022/03/22 01:56:14;;;;;;;18.00;9.82;;;0.10;59.10;;;;;;5053730;28;19916;-77
2022/03/22 01:58:40;;;;;;;13.98;8.65;;;0.10;58.60;;;;;;5052137;28;20089;-76
2022/03/22 02:06:56;;;;;;;15.15;8.43;;;0.90;52.20;;;;;;4971538;28;20073;-75
2022/03/22 02:09:22;;;;;;;14.52;7.72;;;1.00;51.80;;;;;;5021931;28;20036;-77
2022/03/22 02:11:47;;;;;;;18.13;8.63;;;1.10;51.50;;;;;;5036247;28;20400;-77
2022/03/22 02:14:13;;;;;;;15.48;8.88;;;1.10;51.30;;;;;;5053401;28;20025;-76
2022/03/22 02:16:39;;;;;;;16.50;8.88;;;1.20;51.10;;;;;;5052303;28;20025;-76
2022/03/22 02:19:08;;;;;;;20.55;9.10;;;1.30;50.70;;;;;;5033733;28;20082;-76
2022/03/22 02:21:39;;;;;;;15.00;8.65;;;1.30;50.90;;;;;;5052273;28;20047;-76
2022/03/22 02:24:05;;;;;;;17.27;8.55;;;1.10;51.90;;;;;;5051917;28;20024;-76
2022/03/22 02:26:31;;;;;;;19.00;9.65;;;1.00;51.80;;;;;;5052249;28;20163;-76
2022/03/22 02:28:57;;;;;;;16.23;9.20;;;0.90;52.50;;;;;;5051629;28;20439;-76
2022/03/22 02:31:24;;;;;;;18.63;9.43;;;0.80;53.30;;;;;;5052700;28;20029;-76
2022/03/22 02:33:50;;;;;;;19.67;9.40;;;1.00;51.90;;;;;;5052881;28;20079;-78
2022/03/22 02:36:15;;;;;;;22.63;10.05;;;1.10;51.90;;;;;;5050889;28;20017;-77
2022/03/22 02:38:41;;;;;;;16.90;9.00;;;1.20;52.10;;;;;;5037691;28;20404;-77
2022/03/22 02:41:13;;;;;;;17.67;9.45;;;1.20;51.10;;;;;;5014891;28;20029;-77
2022/03/22 02:43:39;;;;;;;16.15;9.07;;;1.30;50.70;;;;;;5014725;28;20029;-76
2022/03/22 02:46:04;;;;;;;17.63;9.15;;;1.30;50.70;;;;;;5032753;28;20113;-76
2022/03/22 02:48:30;;;;;;;15.65;8.63;;;1.20;50.50;;;;;;5031038;28;20101;-77
2022/03/22 02:50:56;;;;;;;17.83;8.82;;;1.20;50.50;;;;;;5031647;28;20147;-76
2022/03/22 02:53:21;;;;;;;16.42;8.95;;;1.10;50.90;;;;;;5014039;28;20045;-77
2022/03/22 02:55:47;;;;;;;17.88;9.02;;;1.00;51.00;;;;;;5015721;28;20029;-76
2022/03/22 02:58:12;;;;;;;16.23;8.95;;;1.00;51.00;;;;;;5031153;28;20026;-76
2022/03/22 03:00:38;;;;;;;17.02;9.98;;;1.10;50.90;;;;;;5032220;28;20040;-76
2022/03/22 03:03:04;;;;;;;15.82;8.82;;;1.10;50.90;;;;;;5014071;28;20049;-76
2022/03/22 03:05:31;;;;;;;18.15;9.48;;;1.20;50.60;;;;;;5031592;28;20091;-76
2022/03/22 03:07:56;;;;;;;17.27;8.85;;;1.20;50.60;;;;;;5013079;28;20087;-76
2022/03/22 03:10:22;;;;;;;15.50;9.13;;;1.10;50.50;;;;;;5031680;28;20053;-77
2022/03/22 03:12:56;;;;;;;16.52;9.30;;;1.30;50.10;;;;;;5013819;28;20049;-77
2022/03/22 03:15:21;;;;;;;18.20;9.55;;;1.40;50.10;;;;;;5031844;28;20026;-76
2022/03/22 03:17:47;;;;;;;17.58;8.95;;;1.30;50.10;;;;;;5014918;28;20029;-77
2022/03/22 03:20:13;;;;;;;15.75;7.93;;;1.20;50.30;;;;;;5031846;28;20441;-77
2022/03/22 03:22:38;;;;;;;17.35;9.45;;;1.10;50.90;;;;;;5014046;28;20052;-77
2022/03/22 03:25:06;;;;;;;17.08;9.50;;;1.00;52.80;;;;;;5014907;28;20029;-78
2022/03/22 03:27:32;;;;;;;21.77;9.73;;;0.80;52.40;;;;;;5032097;28;20021;-76
2022/03/22 03:29:58;;;;;;;16.98;8.85;;;0.90;52.20;;;;;;5033023;28;20469;-77
2022/03/22 03:32:23;;;;;;;19.30;8.57;;;1.00;51.40;;;;;;5032595;28;20018;-77
2022/03/22 03:34:49;;;;;;;18.80;9.70;;;1.10;50.70;;;;;;5034656;28;20029;-77
2022/03/22 03:37:14;;;;;;;18.10;9.48;;;1.20;50.40;;;;;;5033677;28;20070;-77
2022/03/22 03:39:40;;;;;;;15.07;8.82;;;1.20;50.50;;;;;;5035381;28;20418;-78
2022/03/22 03:42:06;;;;;;;20.20;10.25;;;1.30;51.40;;;;;;5018018;28;20068;-77
2022/03/22 03:47:22;;;;;;;18.23;10.02;;;1.30;50.70;;;;;;5035252;28;20437;-77
2022/03/22 03:49:59;;;;;;;16.83;8.85;;;1.40;50.20;;;;;;5019142;28;20476;-77
2022/03/22 03:52:27;;;;;;;18.40;9.63;;;1.50;49.60;;;;;;5035134;28;20025;-76
2022/03/22 03:54:53;;;;;;;20.23;9.18;;;1.60;49.00;;;;;;5035148;28;20051;-77
2022/03/22 03:57:23;;;;;;;16.00;8.85;;;1.60;48.90;;;;;;5016879;28;20116;-76
2022/03/22 03:59:50;;;;;;;18.13;9.30;;;1.60;49.00;;;;;;5019115;28;20026;-77
2022/03/22 04:02:16;;;;;;;16.95;9.43;;;1.70;49.00;;;;;;5035318;28;20026;-76
2022/03/22 04:04:42;;;;;;;18.05;9.55;;;1.60;49.20;;;;;;5017092;28;20040;-77
2022/03/22 04:07:10;;;;;;;26.63;11.25;;;1.50;49.30;;;;;;5034478;28;20024;-76
2022/03/22 04:09:37;;;;;;;17.45;10.05;;;1.40;49.60;;;;;;5034931;28;20022;-78
2022/03/22 04:12:04;;;;;;;17.95;9.32;;;1.40;49.80;;;;;;5017198;28;20039;-76
2022/03/22 04:14:29;;;;;;;16.15;9.35;;;1.30;49.90;;;;;;5017357;28;20392;-77
2022/03/22 04:16:56;;;;;;;28.58;10.88;;;1.30;50.10;;;;;;5018328;28;20022;-77
2022/03/22 04:19:22;;;;;;;16.80;9.45;;;1.30;50.00;;;;;;5036184;28;20028;-78
2022/03/22 04:21:48;;;;;;;17.45;10.00;;;1.30;50.10;;;;;;5028287;28;20262;-77
2022/03/22 04:24:14;;;;;;;16.45;9.18;;;1.20;50.40;;;;;;5028395;28;20033;-77
2022/03/22 04:26:42;;;;;;;18.20;9.77;;;1.10;50.60;;;;;;5050164;28;20025;-76
2022/03/22 04:34:41;;;;;;;16.67;9.18;;;0.80;51.90;;;;;;5037985;28;20604;-77
2022/03/22 04:37:12;;;;;;;16.17;8.90;;;0.50;52.60;;;;;;5029530;28;20037;-76
2022/03/22 04:39:42;;;;;;;17.85;9.63;;;0.30;53.70;;;;;;5055098;28;20021;-76
2022/03/22 04:42:08;;;;;;;17.48;9.77;;;0.10;54.90;;;;;;5036075;28;20562;-77
2022/03/22 04:44:34;;;;;;;15.85;8.90;;;0.00;56.40;;;;;;5054296;28;20033;-76
2022/03/22 04:47:00;;;;;;;23.30;11.52;;;-3276.60;57.30;;;;;;5053345;28;20025;-75
2022/03/22 04:49:27;;;;;;;20.77;10.07;;;-3276.50;58.00;;;;;;5054402;28;20017;-78
2022/03/22 04:57:29;;;;;;;24.08;11.25;;;-3276.70;56.60;;;;;;5053461;28;20039;-76
2022/03/22 04:59:55;;;;;;;15.80;10.30;;;0.00;55.50;;;;;;5054418;28;20021;-76
2022/03/22 05:02:21;;;;;;;16.20;9.57;;;0.10;55.20;;;;;;5054527;28;20480;-77
2022/03/22 05:04:47;;;;;;;18.00;9.60;;;0.10;54.50;;;;;;5055016;28;20392;-77
2022/03/22 05:07:13;;;;;;;23.58;11.63;;;0.20;54.10;;;;;;5054031;28;20095;-77
2022/03/22 05:09:38;;;;;;;18.67;9.65;;;0.10;54.50;;;;;;5054580;28;20071;-78
2022/03/22 05:12:04;;;;;;;17.55;10.55;;;0.00;55.30;;;;;;5054386;28;20067;-77
2022/03/22 05:14:31;;;;;;;16.02;10.07;;;0.00;55.20;;;;;;5054758;28;20556;-77
2022/03/22 05:16:58;;;;;;;20.65;11.05;;;0.00;55.40;;;;;;5054332;28;20029;-77
2022/03/22 05:19:25;;;;;;;19.67;10.65;;;0.20;54.80;;;;;;5053590;28;20033;-77
2022/03/22 05:21:51;;;;;;;19.80;11.05;;;0.30;54.50;;;;;;5054090;28;20066;-78
2022/03/22 05:24:17;;;;;;;18.27;10.50;;;0.30;54.30;;;;;;5053762;28;20442;-77
2022/03/22 05:26:42;;;;;;;16.75;9.85;;;0.60;54.60;;;;;;5053943;28;20465;-76
2022/03/22 05:29:08;;;;;;;19.08;10.55;;;1.40;53.50;;;;;;5034562;28;20078;-73
2022/03/22 05:31:34;;;;;;;19.63;10.70;;;2.50;51.90;;;;;;5032047;28;20392;-76
2022/03/22 05:34:01;;;;;;;19.98;10.52;;;3.60;49.40;;;;;;5038265;28;20056;-76
2022/03/22 05:36:27;;;;;;;18.38;9.27;;;4.60;46.20;;;;;;5031383;28;20021;-76
2022/03/22 05:38:53;;;;;;;18.02;9.85;;;5.40;44.70;;;;;;5052605;28;20112;-77
2022/03/22 05:41:20;;;;;;;17.15;9.35;;;6.30;42.90;;;;;;5035965;28;20114;-76
2022/03/22 05:43:46;;;;;;;17.17;10.35;;;6.90;40.30;;;;;;5050899;28;20021;-77
2022/03/22 05:46:15;;;;;;;17.98;10.52;;;7.80;39.20;;;;;;5034719;28;20388;-77
2022/03/22 05:48:40;;;;;;;19.27;11.30;;;8.70;37.50;;;;;;5052389;28;20066;-77
2022/03/22 05:51:06;;;;;;;21.08;10.73;;;9.30;36.40;;;;;;5035065;28;20025;-76
2022/03/22 05:53:32;;;;;;;18.27;10.88;;;9.90;34.90;;;;;;5053059;28;20122;-77
2022/03/22 05:55:57;;;;;;;16.52;10.63;;;10.60;34.10;;;;;;5035501;28;20021;-76
2022/03/22 05:58:23;;;;;;;17.38;10.40;;;11.30;32.30;;;;;;5051924;28;20036;-77
2022/03/22 06:00:49;;;;;;;15.13;10.25;;;11.80;31.60;;;;;;5053637;28;20017;-77
2022/03/22 06:03:15;;;;;;;18.27;10.65;;;12.50;28.40;;;;;;5053197;28;20021;-75
2022/03/22 06:05:42;;;;;;;13.95;10.00;;;12.30;26.90;;;;;;5053085;28;20025;-76
2022/03/22 06:08:08;;;;;;;16.65;10.23;;;11.80;27.40;;;;;;5036314;28;20034;-77
2022/03/22 06:10:34;;;;;;;19.70;10.38;;;11.30;27.60;;;;;;5054582;28;20021;-76
2022/03/22 06:13:00;;;;;;;16.38;10.73;;;11.10;28.40;;;;;;5052228;28;20096;-77
2022/03/22 06:15:28;;;;;;;16.17;10.07;;;10.30;29.50;;;;;;5051885;28;20029;-78
2022/03/22 06:17:58;;;;;;;18.95;10.15;;;10.30;29.90;;;;;;5051779;28;20032;-77
2022/03/22 06:20:26;;;;;;;19.58;10.65;;;10.30;29.80;;;;;;5036261;28;20091;-77
2022/03/22 06:22:53;;;;;;;19.25;10.55;;;10.40;29.70;;;;;;5054291;28;20028;-79
2022/03/22 06:25:19;;;;;;;15.00;10.18;;;10.60;29.10;;;;;;5034744;28;20079;-78
2022/03/22 06:27:48;;;;;;;18.77;10.35;;;11.20;29.20;;;;;;5052903;28;20021;-78
2022/03/22 06:30:15;;;;;;;18.02;9.40;;;11.90;27.90;;;;;;5036234;28;20029;-79
2022/03/22 06:32:47;;;;;;;17.88;11.13;;;12.70;27.30;;;;;;5036786;28;20029;-80
2022/03/22 06:35:18;;;;;;;15.02;10.38;;;14.00;25.60;;;;;;5054230;28;20036;-77
2022/03/22 06:37:46;;;;;;;16.33;10.15;;;14.60;24.20;;;;;;5075515;23;20033;-71
2022/03/22 06:40:12;;;;;;;16.98;10.10;;;14.40;24.00;;;;;;5016637;28;20045;-73
2022/03/22 06:42:42;;;;;;;19.63;10.90;;;14.20;24.00;;;;;;5031912;28;20037;-73
2022/03/22 06:45:12;;;;;;;17.80;11.25;;;14.00;24.50;;;;;;5023059;28;20050;-72
2022/03/22 06:47:41;;;;;;;16.98;11.18;;;12.70;25.60;;;;;;5030297;28;20029;-74
2022/03/22 06:50:10;;;;;;;16.90;11.15;;;12.30;26.80;;;;;;5033139;28;20009;-74
2022/03/22 06:52:36;;;;;;;20.35;11.43;;;12.20;27.00;;;;;;5011290;28;20038;-73
2022/03/22 06:55:03;;;;;;;17.00;11.02;;;12.50;26.40;;;;;;5028437;28;20029;-76
2022/03/22 06:57:31;;;;;;;17.88;11.50;;;13.00;26.40;;;;;;5031836;28;20025;-76
2022/03/22 06:59:57;;;;;;;16.92;9.88;;;13.20;25.70;;;;;;5032517;28;20092;-74
2022/03/22 07:02:23;;;;;;;19.95;11.38;;;13.00;26.40;;;;;;5019093;28;20022;-74
2022/03/22 07:04:49;;;;;;;17.63;10.90;;;13.30;25.80;;;;;;5023322;28;20038;-74
2022/03/22 07:07:15;;;;;;;19.08;11.60;;;13.20;25.80;;;;;;5030519;28;20088;-73
2022/03/22 07:09:42;;;;;;;19.23;11.23;;;13.00;26.20;;;;;;5012059;28;20029;-76
2022/03/22 07:12:08;;;;;;;19.10;11.52;;;12.90;25.80;;;;;;5031617;28;20040;-74
2022/03/22 07:14:34;;;;;;;17.45;12.27;;;12.40;26.80;;;;;;5025469;28;20432;-77
2022/03/22 07:16:59;;;;;;;21.52;11.65;;;12.40;27.10;;;;;;5029432;28;20017;-76
2022/03/22 07:19:25;;;;;;;20.05;11.68;;;13.20;26.60;;;;;;5029921;28;20083;-74
2022/03/22 07:21:51;;;;;;;25.77;11.65;;;13.60;26.10;;;;;;5030072;28;20091;-73
2022/03/22 07:24:18;;;;;;;17.25;10.77;;;13.80;25.20;;;;;;5030822;28;20097;-75
2022/03/22 07:26:45;;;;;;;18.02;11.52;;;13.40;26.30;;;;;;5013320;28;20049;-72
2022/03/22 07:29:13;;;;;;;17.50;10.65;;;12.90;26.60;;;;;;5012777;28;20035;-73
2022/03/22 07:31:40;;;;;;;16.55;11.23;;;13.50;26.10;;;;;;5030486;28;20049;-72
2022/03/22 07:34:07;;;;;;;21.63;11.20;;;14.10;25.70;;;;;;5012796;28;20053;-75
2022/03/22 07:36:35;;;;;;;28.52;12.15;;;14.90;24.60;;;;;;5031214;28;20029;-74
2022/03/22 07:39:01;;;;;;;18.20;11.23;;;15.00;23.50;;;;;;5031299;28;20034;-72
2022/03/22 07:41:27;;;;;;;18.92;10.45;;;14.80;24.50;;;;;;5031301;28;20037;-74
2022/03/22 07:43:54;;;;;;;21.05;12.00;;;14.00;25.00;;;;;;5028869;28;20030;-73
2022/03/22 07:46:26;;;;;;;29.67;16.15;;;13.50;25.30;;;;;;5031144;28;20021;-74
2022/03/22 07:48:52;;;;;;;20.00;12.07;;;13.50;27.20;;;;;;5031389;28;20014;-75
2022/03/22 07:54:03;;;;;;;19.05;11.43;;;15.20;24.00;;;;;;5022411;28;20052;-73
2022/03/22 07:56:30;;;;;;;24.40;11.60;;;14.50;24.50;;;;;;5031761;28;20041;-73
2022/03/22 07:58:56;;;;;;;16.08;10.20;;;14.30;24.80;;;;;;5031344;28;20045;-73
2022/03/22 08:01:21;;;;;;;15.45;11.07;;;14.20;24.50;;;;;;5009319;28;20076;-72
2022/03/22 08:03:47;;;;;;;20.20;10.40;;;13.60;24.80;;;;;;5029337;28;20428;-71
2022/03/22 08:06:13;;;;;;;17.23;11.52;;;13.70;25.10;;;;;;5030771;28;20426;-72
2022/03/22 08:08:43;;;;;;;17.67;11.00;;;13.70;24.90;;;;;;5012529;28;20037;-71
2022/03/22 08:11:09;;;;;;;17.90;11.32;;;13.70;25.30;;;;;;5030774;28;20033;-71
2022/03/22 08:13:36;;;;;;;17.88;10.02;;;13.90;25.00;;;;;;5030706;28;20021;-73
2022/03/22 08:16:02;;;;;;;19.10;10.77;;;14.10;25.20;;;;;;5029810;28;20021;-72
2022/03/22 08:18:27;;;;;;;19.08;10.38;;;14.60;23.70;;;;;;5026388;28;20030;-75
2022/03/22 08:20:53;;;;;;;18.27;11.02;;;14.90;23.40;;;;;;5033849;28;20071;-73
2022/03/22 08:23:18;;;;;;;16.27;10.35;;;14.50;24.10;;;;;;5034260;28;20060;-74
2022/03/22 08:25:44;;;;;;;16.88;9.93;;;15.00;23.80;;;;;;5034693;28;20044;-75
2022/03/22 08:28:11;;;;;;;13.63;9.43;;;15.10;23.20;;;;;;5034331;28;20029;-74
2022/03/22 08:30:38;;;;;;;14.60;9.93;;;15.30;22.80;;;;;;5017252;28;20028;-74
2022/03/22 08:33:09;;;;;;;17.45;10.35;;;15.00;22.80;;;;;;5029479;28;20504;-75
2022/03/22 08:35:36;;;;;;;15.80;9.82;;;15.50;22.80;;;;;;5015290;28;20520;-74
2022/03/22 08:38:03;;;;;;;24.45;10.38;;;15.90;21.70;;;;;;5033973;28;20101;-76
2022/03/22 08:40:28;;;;;;;18.77;9.75;;;16.00;22.00;;;;;;5034643;28;20034;-73
2022/03/22 08:42:56;;;;;;;13.52;10.07;;;16.10;21.60;;;;;;5035034;28;20030;-74
2022/03/22 08:45:23;;;;;;;16.65;9.57;;;15.90;21.50;;;;;;5016659;28;20045;-75
2022/03/22 08:47:51;;;;;;;12.23;8.32;;;16.00;22.30;;;;;;5016208;28;20104;-74
2022/03/22 08:50:19;;;;;;;24.98;11.32;;;16.20;21.20;;;;;;5034313;28;20021;-75
2022/03/22 08:52:47;;;;;;;13.43;9.50;;;15.90;20.60;;;;;;5034602;28;20046;-72
2022/03/22 08:55:14;;;;;;;14.55;8.50;;;16.10;20.70;;;;;;5015716;28;20025;-74
2022/03/22 08:57:41;;;;;;;14.35;8.38;;;16.00;20.40;;;;;;5030349;28;20424;-74
2022/03/22 09:00:09;;;;;;;17.42;10.38;;;16.00;20.40;;;;;;5032285;28;20472;-74
2022/03/22 09:02:36;;;;;;;12.07;8.35;;;15.80;20.30;;;;;;5032155;28;20185;-75
2022/03/22 09:07:47;;;;;;;17.52;10.50;;;15.60;20.70;;;;;;5032723;28;20058;-74
2022/03/22 09:10:14;;;;;;;22.42;13.00;;;15.40;19.20;;;;;;5032863;28;20021;-74
2022/03/22 09:12:41;;;;;;;12.13;8.30;;;15.20;20.70;;;;;;5009876;28;20599;-73
2022/03/22 09:15:07;;;;;;;12.85;8.50;;;15.10;19.70;;;;;;5012062;28;20058;-73
2022/03/22 09:17:32;;;;;;;14.65;8.45;;;15.30;19.90;;;;;;5013950;28;20065;-73
2022/03/22 09:20:07;;;;;;;13.02;8.43;;;15.40;20.20;;;;;;5012876;28;20030;-74
2022/03/22 09:22:39;;;;;;;12.95;7.97;;;15.90;19.90;;;;;;5013693;28;20038;-74
2022/03/22 09:25:07;;;;;;;12.00;8.05;;;15.60;19.80;;;;;;4996419;28;20124;-75
2022/03/22 09:27:35;;;;;;;14.77;8.77;;;15.50;19.60;;;;;;5013447;28;20021;-74
2022/03/22 09:30:02;;;;;;;11.38;7.57;;;15.30;19.90;;;;;;5011106;28;20122;-73
2022/03/22 09:32:27;;;;;;;20.33;11.88;;;15.50;20.40;;;;;;5013355;28;20022;-73
2022/03/22 09:34:53;;;;;;;11.60;8.20;;;15.50;20.30;;;;;;5016896;28;20033;-74
2022/03/22 09:37:18;;;;;;;16.00;8.15;;;15.70;19.90;;;;;;5012396;28;20030;-73
2022/03/22 09:39:45;;;;;;;13.82;8.73;;;15.30;19.90;;;;;;4996032;28;20082;-74
2022/03/22 09:42:11;;;;;;;15.10;8.73;;;15.30;20.10;;;;;;4996281;28;20109;-74
2022/03/22 09:44:37;;;;;;;12.73;8.15;;;15.10;20.60;;;;;;5013774;28;20029;-72
2022/03/22 09:47:04;;;;;;;14.02;7.95;;;15.20;20.80;;;;;;5011936;28;20022;-71
2022/03/22 09:49:31;;;;;;;32.80;19.38;;;15.00;20.40;;;;;;5011831;28;20022;-73
2022/03/22 09:51:57;;;;;;;11.98;7.90;;;15.30;21.80;;;;;;5016685;28;20378;-73
2022/03/22 09:54:25;;;;;;;14.65;10.45;;;15.50;19.80;;;;;;5032961;28;20026;-74
2022/03/22 09:56:53;;;;;;;20.50;11.75;;;15.00;20.30;;;;;;5015477;28;20064;-74
2022/03/22 09:59:18;;;;;;;15.65;8.38;;;15.00;20.20;;;;;;5014818;28;20030;-73
2022/03/22 10:01:45;;;;;;;16.70;10.35;;;14.60;19.80;;;;;;5015428;28;20035;-73
2022/03/22 10:04:13;;;;;;;13.85;7.95;;;14.80;20.80;;;;;;5033267;28;20426;-73
2022/03/22 10:07:02;;;;;;;13.50;7.97;;;15.00;20.50;;;;;;5032880;28;20022;-74
2022/03/22 10:09:33;;;;;;;12.07;8.15;;;14.90;20.60;;;;;;5032554;28;20013;-73
2022/03/22 10:11:58;;;;;;;12.07;8.63;;;14.80;19.90;;;;;;5032972;28;20512;-74
2022/03/22 10:14:38;;;;;;;18.98;8.25;;;14.50;20.60;;;;;;5032539;28;20264;-73
2022/03/22 10:17:08;;;;;;;11.38;8.77;;;14.50;20.00;;;;;;5032474;28;20029;-72
2022/03/22 10:19:45;;;;;;;13.73;8.65;;;14.30;19.80;;;;;;5032606;28;20025;-73
2022/03/22 10:22:10;;;;;;;14.98;8.45;;;14.10;20.10;;;;;;5032706;28;20036;-74
2022/03/22 10:24:48;;;;;;;19.20;9.25;;;14.00;20.40;;;;;;5014950;28;20412;-73
2022/03/22 10:27:20;;;;;;;16.90;8.52;;;13.80;20.40;;;;;;5031973;28;20067;-72
2022/03/22 10:29:46;;;;;;;11.55;7.68;;;13.90;20.90;;;;;;5032050;28;20477;-72
2022/03/22 10:32:12;;;;;;;14.05;9.00;;;13.90;20.20;;;;;;5032149;28;20097;-73
2022/03/22 10:34:37;;;;;;;18.42;11.35;;;14.00;20.80;;;;;;5032067;28;20030;-73
2022/03/22 10:37:03;;;;;;;32.50;18.27;;;14.00;21.10;;;;;;5031831;28;20151;-72
2022/03/22 10:39:28;;;;;;;13.30;8.88;;;14.10;23.10;;;;;;5031528;28;20397;-73
2022/03/22 10:42:04;;;;;;;24.75;14.75;;;14.00;20.20;;;;;;5032417;28;20040;-74
2022/03/22 10:44:35;;;;;;;28.35;16.25;;;14.10;21.60;;;;;;5032341;28;20033;-73
2022/03/22 10:47:02;;;;;;;11.65;8.00;;;14.20;22.20;;;;;;5026668;28;20064;-74
2022/03/22 10:49:28;;;;;;;20.35;12.60;;;14.20;21.10;;;;;;5032512;28;20091;-73
2022/03/22 10:51:56;;;;;;;13.63;8.13;;;14.30;22.40;;;;;;4992368;28;20034;-73
2022/03/22 10:54:22;;;;;;;13.30;8.10;;;14.20;20.70;;;;;;5012698;28;20034;-73
2022/03/22 10:56:50;;;;;;;14.25;8.27;;;14.20;20.80;;;;;;5011973;28;20032;-72
2022/03/22 10:59:19;;;;;;;16.67;8.15;;;14.20;21.10;;;;;;5012041;28;20030;-73
2022/03/22 11:01:46;;;;;;;13.52;8.70;;;14.10;21.90;;;;;;4994470;28;20022;-73
2022/03/22 11:04:16;;;;;;;14.43;8.15;;;14.00;22.20;;;;;;5019669;28;20033;-73
2022/03/22 11:06:46;;;;;;;13.23;8.82;;;14.00;21.90;;;;;;5031935;28;20073;-73
2022/03/22 11:09:16;;;;;;;10.55;8.05;;;14.10;22.70;;;;;;5031710;28;20397;-74
2022/03/22 11:11:43;;;;;;;12.38;8.70;;;14.20;21.80;;;;;;5032018;28;20026;-74
2022/03/22 11:14:15;;;;;;;13.05;9.27;;;14.20;22.40;;;;;;5032134;28;20032;-74
2022/03/22 11:16:42;;;;;;;15.18;8.15;;;14.30;22.00;;;;;;5026733;28;20038;-74
2022/03/22 11:19:09;;;;;;;11.82;8.68;;;14.10;22.00;;;;;;5031575;28;20033;-74
2022/03/22 11:21:37;;;;;;;11.85;8.45;;;14.20;21.70;;;;;;5032138;28;20029;-74
2022/03/22 11:24:09;;;;;;;14.13;8.32;;;14.30;20.90;;;;;;5014138;28;20046;-74
2022/03/22 11:26:46;;;;;;;13.35;8.75;;;14.30;21.50;;;;;;5031742;28;20045;-73
2022/03/22 11:29:15;;;;;;;18.60;11.88;;;14.20;20.70;;;;;;5031636;28;20124;-72
2022/03/22 11:31:42;;;;;;;26.77;14.85;;;14.30;22.80;;;;;;5031688;28;20036;-73
2022/03/22 11:34:09;;;;;;;10.93;7.80;;;14.40;22.80;;;;;;5031624;28;20029;-73
2022/03/22 11:36:44;;;;;;;24.33;11.25;;;14.40;20.90;;;;;;5031871;28;20098;-74
2022/03/22 11:39:16;;;;;;;14.20;10.07;;;14.50;21.60;;;;;;5013309;28;20041;-74
2022/03/22 11:44:36;;;;;;;15.48;9.77;;;14.70;23.90;;;;;;5022372;28;20048;-73
2022/03/22 11:47:11;;;;;;;22.10;13.52;;;14.70;22.20;;;;;;5031423;28;20028;-73
2022/03/22 11:49:50;;;;;;;22.00;13.93;;;14.80;21.90;;;;;;5031737;28;20021;-73
2022/03/22 11:52:17;;;;;;;16.15;10.02;;;14.70;22.40;;;;;;5032212;28;20030;-72
2022/03/22 11:55:22;;;;;;;14.85;9.88;;;14.80;21.50;;;;;;5014863;28;20512;-73
2022/03/22 11:57:56;;;;;;;24.23;15.13;;;14.80;23.00;;;;;;5020177;28;20052;-73
2022/03/22 12:00:46;;;;;;;22.23;12.77;;;14.80;23.00;;;;;;5036525;28;20014;-73
2022/03/22 12:03:14;;;;;;;10.75;8.45;;;14.80;20.50;;;;;;5018095;28;20037;-73
2022/03/22 12:05:41;;;;;;;26.95;14.93;;;14.80;20.40;;;;;;5035478;28;20025;-74
2022/03/22 12:08:13;;;;;;;17.60;11.63;;;14.70;22.30;;;;;;5017478;28;20026;-73
2022/03/22 12:10:40;;;;;;;27.65;11.07;;;14.90;22.10;;;;;;5035847;28;20029;-73
2022/03/22 12:13:05;;;;;;;19.30;11.77;;;14.90;21.50;;;;;;5036156;28;20026;-73
2022/03/22 12:15:31;;;;;;;12.93;8.80;;;14.90;22.70;;;;;;5035603;28;20071;-73
2022/03/22 12:17:57;;;;;;;15.57;9.25;;;14.90;21.50;;;;;;5035476;28;20053;-72
2022/03/22 12:20:23;;;;;;;14.65;8.82;;;14.90;21.00;;;;;;5035302;28;20033;-72
2022/03/22 12:22:51;;;;;;;16.63;8.82;;;14.90;21.10;;;;;;5017548;28;20200;-72
2022/03/22 12:25:20;;;;;;;15.30;8.95;;;14.90;21.30;;;;;;5034861;28;20512;-71
2022/03/22 12:27:57;;;;;;;12.43;8.63;;;14.90;21.40;;;;;;5034483;28;20037;-73
2022/03/22 12:30:24;;;;;;;22.50;14.05;;;15.00;21.40;;;;;;5035156;28;20021;-73
2022/03/22 12:32:51;;;;;;;13.73;8.38;;;15.10;23.20;;;;;;5034809;28;20040;-73
2022/03/22 12:35:17;;;;;;;17.30;9.55;;;15.20;21.20;;;;;;5017148;28;20029;-73
2022/03/22 12:37:43;;;;;;;21.08;8.52;;;15.30;21.90;;;;;;5034656;28;20025;-73
2022/03/22 12:40:09;;;;;;;12.23;8.23;;;15.30;20.70;;;;;;5035388;28;20377;-73
2022/03/22 12:42:35;;;;;;;13.60;9.18;;;15.20;21.40;;;;;;5016789;28;20036;-73
2022/03/22 12:45:00;;;;;;;15.10;8.00;;;15.30;20.70;;;;;;5004234;28;20512;-73
2022/03/22 12:47:27;;;;;;;21.42;11.63;;;15.20;20.70;;;;;;5023403;28;20041;-74
2022/03/22 12:49:52;;;;;;;16.67;10.57;;;15.30;22.30;;;;;;5023507;28;20029;-73
2022/03/22 12:52:18;;;;;;;13.73;9.50;;;15.40;21.50;;;;;;5025033;28;20030;-73
2022/03/22 12:54:44;;;;;;;15.63;8.68;;;15.30;21.30;;;;;;5022110;28;20373;-71
2022/03/22 12:57:15;;;;;;;12.90;8.23;;;15.40;21.00;;;;;;5015517;28;20036;-74
2022/03/22 12:59:42;;;;;;;12.18;8.50;;;15.50;20.80;;;;;;5019168;28;20030;-72
2022/03/22 13:02:09;;;;;;;11.05;7.72;;;15.50;20.80;;;;;;5023354;28;20044;-74
2022/03/22 13:04:46;;;;;;;12.30;8.05;;;15.50;20.80;;;;;;5022077;28;20030;-73
2022/03/22 13:07:35;;;;;;;14.82;7.85;;;15.50;20.90;;;;;;5021879;28;20026;-73